createdAt,value
2024-01-31T00:01:19.782Z,4.40
2024-01-31T00:03:46.989Z,4.40
2024-01-31T00:06:15.219Z,4.40
2024-01-31T00:08:43.568Z,4.30
2024-01-31T00:11:10.553Z,4.50
2024-01-31T00:13:37.670Z,4.30
2024-01-31T00:16:05.527Z,4.30
2024-01-31T00:18:32.660Z,4.20
2024-01-31T00:20:59.668Z,4.20
2024-01-31T00:23:26.770Z,4.30
2024-01-31T00:25:53.883Z,4.20
2024-01-31T00:28:20.945Z,4.20
2024-01-31T00:30:48.997Z,4.20
2024-01-31T00:33:16.138Z,4.20
2024-01-31T00:35:45.319Z,4.20
2024-01-31T00:38:12.337Z,4.20
2024-01-31T00:40:39.445Z,4.20
2024-01-31T00:43:06.672Z,4.20
2024-01-31T00:45:33.954Z,4.20
2024-01-31T00:48:01.030Z,4.20
2024-01-31T00:50:28.191Z,4.20
2024-01-31T00:52:55.429Z,4.20
2024-01-31T00:55:22.481Z,4.10
2024-01-31T00:57:50.345Z,4.10
2024-01-31T01:00:19.060Z,4.10
2024-01-31T01:02:46.052Z,4.10
2024-01-31T01:10:02.530Z,4.00
2024-01-31T01:12:29.597Z,4.00
2024-01-31T01:15:02.012Z,4.00
2024-01-31T01:17:41.876Z,4.00
2024-01-31T01:20:10.080Z,4.00
2024-01-31T01:22:37.314Z,4.00
2024-01-31T01:25:04.577Z,4.00
2024-01-31T01:27:31.593Z,4.00
2024-01-31T01:29:58.696Z,3.90
2024-01-31T01:32:25.819Z,3.90
2024-01-31T01:34:52.861Z,4.00
2024-01-31T01:37:19.861Z,4.00
2024-01-31T01:39:47.022Z,4.00
2024-01-31T01:42:14.050Z,4.00
2024-01-31T01:44:47.767Z,4.00
2024-01-31T01:47:17.070Z,4.00
2024-01-31T01:49:45.748Z,4.00
2024-01-31T01:52:13.677Z,4.00
2024-01-31T01:54:40.969Z,4.10
2024-01-31T01:57:08.881Z,4.10
2024-01-31T01:59:36.561Z,4.10
2024-01-31T02:02:03.909Z,4.10
2024-01-31T02:04:31.192Z,4.10
2024-01-31T02:06:58.875Z,4.10
2024-01-31T02:09:27.394Z,4.00
2024-01-31T02:11:54.643Z,4.00
2024-01-31T02:14:21.655Z,4.00
2024-01-31T02:16:48.620Z,4.00
2024-01-31T02:19:15.895Z,4.00
2024-01-31T02:21:44.896Z,3.90
2024-01-31T02:24:12.355Z,3.90
2024-01-31T02:26:39.454Z,3.80
2024-01-31T02:29:06.481Z,3.90
2024-01-31T02:31:33.480Z,3.90
2024-01-31T02:34:00.811Z,3.80
2024-01-31T02:36:28.032Z,3.80
2024-01-31T02:38:54.956Z,3.80
2024-01-31T02:41:22.052Z,3.90
2024-01-31T02:43:49.777Z,3.90
2024-01-31T02:46:17.078Z,3.90
2024-01-31T02:48:44.243Z,3.90
2024-01-31T02:51:11.283Z,3.70
2024-01-31T02:53:38.295Z,3.70
2024-01-31T02:56:08.114Z,3.70
2024-01-31T02:58:35.286Z,3.70
2024-01-31T03:01:05.988Z,3.70
2024-01-31T03:03:33.000Z,3.70
2024-01-31T03:06:00.043Z,3.80
2024-01-31T03:08:27.055Z,3.80
2024-01-31T03:10:53.963Z,3.80
2024-01-31T03:13:21.104Z,3.70
2024-01-31T03:15:48.129Z,3.70
2024-01-31T03:18:15.442Z,3.70
2024-01-31T03:20:42.530Z,3.80
2024-01-31T03:23:10.090Z,3.70
2024-01-31T03:25:37.119Z,3.80
2024-01-31T03:28:04.362Z,3.80
2024-01-31T03:30:31.426Z,3.80
2024-01-31T03:32:58.917Z,3.80
2024-01-31T03:35:25.986Z,3.80
2024-01-31T03:37:52.938Z,3.80
2024-01-31T03:40:20.282Z,3.80
2024-01-31T03:42:47.308Z,3.70
2024-01-31T03:45:14.259Z,3.80
2024-01-31T03:47:41.396Z,3.80
2024-01-31T03:50:08.729Z,3.80
2024-01-31T03:52:37.758Z,3.80
2024-01-31T03:55:05.532Z,3.90
2024-01-31T03:57:32.689Z,3.90
2024-01-31T04:00:06.390Z,4.00
2024-01-31T04:02:33.800Z,4.00
2024-01-31T04:05:01.147Z,4.00
2024-01-31T04:07:31.568Z,4.00
2024-01-31T04:09:58.581Z,4.00
2024-01-31T04:12:25.620Z,4.10
2024-01-31T04:14:52.639Z,4.10
2024-01-31T04:17:21.101Z,4.10
2024-01-31T04:19:50.636Z,4.10
2024-01-31T04:22:18.279Z,4.00
2024-01-31T04:24:46.532Z,4.10
2024-01-31T04:27:13.740Z,4.10
2024-01-31T04:29:41.658Z,4.10
2024-01-31T04:32:08.777Z,4.10
2024-01-31T04:34:42.070Z,4.10
2024-01-31T04:37:09.180Z,4.00
2024-01-31T04:39:39.462Z,4.00
2024-01-31T04:42:06.569Z,4.00
2024-01-31T04:44:34.128Z,4.00
2024-01-31T04:47:01.238Z,4.00
2024-01-31T04:49:28.647Z,3.90
2024-01-31T04:51:55.972Z,4.00
2024-01-31T04:54:23.106Z,4.00
2024-01-31T04:56:50.044Z,4.00
2024-01-31T04:59:17.072Z,4.00
2024-01-31T05:01:44.773Z,4.10
2024-01-31T05:04:12.219Z,4.00
2024-01-31T05:06:39.353Z,4.00
2024-01-31T05:09:07.980Z,4.00
2024-01-31T05:11:35.035Z,4.00
2024-01-31T05:14:02.183Z,4.10
2024-01-31T05:16:29.273Z,4.10
2024-01-31T05:18:56.325Z,4.00
2024-01-31T05:21:23.319Z,4.10
2024-01-31T05:23:50.384Z,4.10
2024-01-31T05:26:19.033Z,4.20
2024-01-31T05:28:46.172Z,4.20
2024-01-31T05:31:13.359Z,4.30
2024-01-31T05:33:40.581Z,4.30
2024-01-31T05:36:08.462Z,4.40
2024-01-31T05:38:35.494Z,4.40
2024-01-31T05:41:02.954Z,4.40
2024-01-31T05:43:30.090Z,4.50
2024-01-31T05:45:57.817Z,4.50
2024-01-31T05:48:24.819Z,4.50
2024-01-31T05:50:51.848Z,4.50
2024-01-31T05:53:18.887Z,4.50
2024-01-31T05:55:45.993Z,4.60
2024-01-31T05:58:13.146Z,4.60
2024-01-31T06:00:42.192Z,4.70
2024-01-31T06:03:09.520Z,4.70
2024-01-31T06:05:36.773Z,4.80
2024-01-31T06:08:06.932Z,4.80
2024-01-31T06:10:35.472Z,4.90
2024-01-31T06:13:02.653Z,4.90
2024-01-31T06:15:29.712Z,4.90
2024-01-31T06:17:57.019Z,4.90
2024-01-31T06:20:24.138Z,4.90
2024-01-31T06:22:51.379Z,5.00
2024-01-31T06:25:19.500Z,4.90
2024-01-31T06:27:47.299Z,5.00
2024-01-31T06:30:20.999Z,4.90
2024-01-31T06:32:49.306Z,5.00
2024-01-31T06:35:16.574Z,5.00
2024-01-31T06:37:43.642Z,5.10
2024-01-31T06:40:10.901Z,5.10
2024-01-31T06:42:37.915Z,5.10
2024-01-31T06:45:08.182Z,5.10
2024-01-31T06:47:35.229Z,5.10
2024-01-31T06:50:02.316Z,5.10
2024-01-31T06:52:29.284Z,5.10
2024-01-31T06:54:56.443Z,5.10
2024-01-31T06:57:23.441Z,5.10
2024-01-31T06:59:50.393Z,5.10
2024-01-31T07:02:17.481Z,5.10
2024-01-31T07:04:44.578Z,5.20
2024-01-31T07:07:11.768Z,5.20
2024-01-31T07:09:38.975Z,5.20
2024-01-31T07:12:06.709Z,5.20
2024-01-31T07:14:33.729Z,5.20
2024-01-31T07:17:00.804Z,5.30
2024-01-31T07:19:29.113Z,5.30
2024-01-31T07:21:57.574Z,5.30
2024-01-31T07:24:29.515Z,5.30
2024-01-31T07:26:57.252Z,5.40
2024-01-31T07:29:24.271Z,5.40
2024-01-31T07:31:51.962Z,5.40
2024-01-31T07:34:19.128Z,5.40
2024-01-31T07:36:46.319Z,5.40
2024-01-31T07:39:13.692Z,5.50
2024-01-31T07:41:40.728Z,5.50
2024-01-31T07:44:07.661Z,5.50
2024-01-31T07:46:34.677Z,5.50
2024-01-31T07:49:02.283Z,5.50
2024-01-31T07:51:29.267Z,5.50
2024-01-31T07:53:56.239Z,5.60
2024-01-31T07:56:23.214Z,5.60
2024-01-31T07:58:50.137Z,5.60
2024-01-31T08:01:17.315Z,5.60
2024-01-31T08:03:44.436Z,5.60
2024-01-31T08:06:11.598Z,5.60
2024-01-31T08:08:39.281Z,5.60
2024-01-31T08:11:06.308Z,5.70
2024-01-31T08:13:34.407Z,5.70
2024-01-31T08:16:02.016Z,5.70
2024-01-31T08:18:29.234Z,5.80
2024-01-31T08:20:56.354Z,5.80
2024-01-31T08:23:23.516Z,5.80
2024-01-31T08:25:51.013Z,5.80
2024-01-31T08:28:18.212Z,5.80
2024-01-31T08:30:45.320Z,5.90
2024-01-31T08:33:12.560Z,5.90
2024-01-31T08:35:39.735Z,5.90
2024-01-31T08:38:06.735Z,5.90
2024-01-31T08:40:33.988Z,6.00
2024-01-31T08:43:01.256Z,6.00
2024-01-31T08:45:28.421Z,6.00
2024-01-31T08:47:55.554Z,6.00
2024-01-31T08:50:22.793Z,6.00
2024-01-31T08:52:50.278Z,6.00
2024-01-31T08:55:17.953Z,6.00
2024-01-31T08:57:45.118Z,6.00
2024-01-31T09:00:12.644Z,6.00
2024-01-31T09:02:39.663Z,6.10
2024-01-31T09:05:07.510Z,6.10
2024-01-31T09:07:34.740Z,6.10
2024-01-31T09:10:01.800Z,6.10
2024-01-31T09:12:29.838Z,6.30
2024-01-31T09:14:57.185Z,6.10
2024-01-31T09:17:24.093Z,6.20
2024-01-31T09:19:51.161Z,6.30
2024-01-31T09:22:18.521Z,6.40
2024-01-31T09:24:46.002Z,6.50
2024-01-31T09:27:13.089Z,6.50
2024-01-31T09:29:42.442Z,6.50
2024-01-31T09:32:11.219Z,6.50
2024-01-31T09:34:38.298Z,6.60
2024-01-31T09:37:05.657Z,6.60
2024-01-31T09:39:32.826Z,6.70
2024-01-31T09:42:00.166Z,6.70
2024-01-31T09:44:28.576Z,6.70
2024-01-31T09:46:57.553Z,6.70
2024-01-31T09:49:24.981Z,6.70
2024-01-31T09:52:00.191Z,6.70
2024-01-31T09:54:27.900Z,6.70
2024-01-31T09:56:56.388Z,6.80
2024-01-31T09:59:23.367Z,6.80
2024-01-31T10:01:58.533Z,6.80
2024-01-31T10:04:25.637Z,6.70
2024-01-31T10:06:53.395Z,6.80
2024-01-31T10:09:20.619Z,6.90
2024-01-31T10:11:48.371Z,6.90
2024-01-31T10:14:15.829Z,6.90
2024-01-31T10:16:43.068Z,6.90
2024-01-31T10:19:10.333Z,6.90
2024-01-31T10:21:37.663Z,6.90
2024-01-31T10:24:05.230Z,7.00
2024-01-31T10:26:35.202Z,7.00
2024-01-31T10:29:09.136Z,7.10
2024-01-31T10:31:40.212Z,7.00
2024-01-31T10:34:10.582Z,7.10
2024-01-31T10:39:13.504Z,7.20
2024-01-31T10:41:43.684Z,7.20
2024-01-31T10:44:12.189Z,7.20
2024-01-31T10:46:40.898Z,7.20
2024-01-31T10:49:08.388Z,7.20
2024-01-31T10:51:37.167Z,7.20
2024-01-31T10:54:06.263Z,7.20
2024-01-31T10:56:34.833Z,7.20
2024-01-31T10:59:03.685Z,7.20
2024-01-31T11:01:31.769Z,7.30
2024-01-31T11:03:59.352Z,7.30
2024-01-31T11:06:26.602Z,7.40
2024-01-31T11:08:53.851Z,7.30
2024-01-31T11:11:21.519Z,7.40
2024-01-31T11:13:48.535Z,7.30
2024-01-31T11:16:25.294Z,7.20
2024-01-31T11:18:55.978Z,7.30
2024-01-31T11:21:24.668Z,7.30
2024-01-31T11:23:51.829Z,7.30
2024-01-31T11:26:30.181Z,7.30
2024-01-31T11:28:57.438Z,7.40
2024-01-31T11:31:25.283Z,7.30
2024-01-31T11:33:56.887Z,7.40
2024-01-31T11:36:24.029Z,7.40
2024-01-31T11:38:51.564Z,7.40
2024-01-31T11:41:18.605Z,7.40
2024-01-31T11:43:45.744Z,7.50
2024-01-31T11:46:12.727Z,7.40
2024-01-31T11:48:40.327Z,7.50
2024-01-31T11:51:09.137Z,7.50
2024-01-31T11:53:36.275Z,7.50
2024-01-31T11:56:03.467Z,7.40
2024-01-31T11:58:31.762Z,7.50
2024-01-31T12:00:58.965Z,7.60
2024-01-31T12:03:26.026Z,7.60
2024-01-31T12:05:57.683Z,7.70
2024-01-31T12:08:28.477Z,7.70
2024-01-31T12:10:55.897Z,7.70
2024-01-31T12:13:23.432Z,7.70
2024-01-31T12:15:50.485Z,7.70
2024-01-31T12:18:24.009Z,7.70
2024-01-31T12:21:01.476Z,7.60
2024-01-31T12:23:28.502Z,7.70
2024-01-31T12:25:55.500Z,7.60
2024-01-31T12:28:22.542Z,7.60
2024-01-31T12:30:50.026Z,7.60
2024-01-31T12:33:17.081Z,7.60
2024-01-31T12:35:45.151Z,7.60
2024-01-31T12:38:12.715Z,7.70
2024-01-31T12:40:39.957Z,7.70
2024-01-31T12:43:07.174Z,7.70
2024-01-31T12:45:34.717Z,7.80
2024-01-31T12:48:01.934Z,7.80
2024-01-31T12:50:29.069Z,7.80
2024-01-31T12:52:58.875Z,7.80
2024-01-31T12:55:25.942Z,7.80
2024-01-31T12:57:53.110Z,7.80
2024-01-31T13:00:20.168Z,7.80
2024-01-31T13:02:47.279Z,7.80
2024-01-31T13:05:14.650Z,7.80
2024-01-31T13:07:42.161Z,7.70
2024-01-31T13:10:09.863Z,7.80
2024-01-31T13:12:36.885Z,7.80
2024-01-31T13:15:04.368Z,7.80
2024-01-31T13:17:31.433Z,7.70
2024-01-31T13:19:58.420Z,7.60
2024-01-31T13:22:25.472Z,7.70
2024-01-31T13:24:52.458Z,7.60
2024-01-31T13:27:19.476Z,7.40
2024-01-31T13:29:46.699Z,7.40
2024-01-31T13:32:13.683Z,7.30
2024-01-31T13:34:42.739Z,7.30
2024-01-31T13:37:10.068Z,7.40
2024-01-31T13:39:37.208Z,7.40
2024-01-31T13:42:05.600Z,7.40
2024-01-31T13:44:32.986Z,7.40
2024-01-31T13:47:00.027Z,7.30
2024-01-31T13:49:27.141Z,7.30
2024-01-31T13:51:54.143Z,7.30
2024-01-31T13:54:21.160Z,7.30
2024-01-31T13:56:48.272Z,7.30
2024-01-31T13:59:15.277Z,7.30
2024-01-31T14:01:42.227Z,7.30
2024-01-31T14:04:09.857Z,7.30
2024-01-31T14:06:37.168Z,7.30
2024-01-31T14:09:04.730Z,7.30
2024-01-31T14:11:31.849Z,7.40
2024-01-31T14:14:00.208Z,7.30
2024-01-31T14:16:27.141Z,7.30
2024-01-31T14:18:54.265Z,7.30
2024-01-31T14:21:21.346Z,7.40
2024-01-31T14:23:52.304Z,7.40
2024-01-31T14:26:24.877Z,7.40
2024-01-31T14:28:52.091Z,7.40
2024-01-31T14:31:19.154Z,7.30
2024-01-31T14:33:46.389Z,7.40
2024-01-31T14:36:13.609Z,7.40
2024-01-31T14:38:40.795Z,7.30
2024-01-31T14:41:07.929Z,7.40
2024-01-31T14:43:34.916Z,7.30
2024-01-31T14:46:02.104Z,7.30
2024-01-31T14:48:29.457Z,7.30
2024-01-31T14:50:56.778Z,7.30
2024-01-31T14:53:24.121Z,7.20
2024-01-31T14:55:51.184Z,7.20
2024-01-31T14:58:18.292Z,7.20
2024-01-31T15:00:46.005Z,7.20
2024-01-31T15:03:13.034Z,7.30
2024-01-31T15:05:40.437Z,7.30
2024-01-31T15:08:07.736Z,7.40
2024-01-31T15:10:34.737Z,7.30
2024-01-31T15:13:01.898Z,7.30
2024-01-31T15:15:28.929Z,7.30
2024-01-31T15:17:56.061Z,7.30
2024-01-31T15:20:23.206Z,7.20
2024-01-31T15:22:50.220Z,7.30
2024-01-31T15:25:17.304Z,7.20
2024-01-31T15:27:45.475Z,7.20
2024-01-31T15:30:13.974Z,7.30
2024-01-31T15:32:41.365Z,7.30
2024-01-31T15:35:09.230Z,7.30
2024-01-31T15:37:36.194Z,7.20
2024-01-31T15:40:03.267Z,7.20
2024-01-31T15:42:30.623Z,7.10
2024-01-31T15:44:57.856Z,7.20
2024-01-31T15:47:24.905Z,7.10
2024-01-31T15:49:52.386Z,7.10
2024-01-31T15:52:19.580Z,7.10
2024-01-31T15:54:46.564Z,7.00
2024-01-31T15:57:13.684Z,7.00
2024-01-31T15:59:40.755Z,7.00
2024-01-31T16:02:07.753Z,7.00
2024-01-31T16:04:34.770Z,7.10
2024-01-31T16:07:02.947Z,7.00
2024-01-31T16:09:30.333Z,7.00
2024-01-31T16:12:00.296Z,7.00
2024-01-31T16:14:27.453Z,7.00
2024-01-31T16:16:54.601Z,7.00
2024-01-31T16:19:21.856Z,7.00
2024-01-31T16:21:49.954Z,7.00
2024-01-31T16:24:17.246Z,7.10
2024-01-31T16:26:44.841Z,7.10
2024-01-31T16:29:11.972Z,7.10
2024-01-31T16:31:43.797Z,7.10
2024-01-31T16:34:11.183Z,7.10
2024-01-31T16:36:38.410Z,7.10
2024-01-31T16:39:05.521Z,7.20
2024-01-31T16:41:32.684Z,7.10
2024-01-31T16:43:59.776Z,7.00
2024-01-31T16:46:27.569Z,7.00
2024-01-31T16:48:56.272Z,7.00
2024-01-31T16:51:23.783Z,6.90
2024-01-31T16:53:51.014Z,6.80
2024-01-31T16:56:18.303Z,6.90
2024-01-31T16:58:45.402Z,6.90
2024-01-31T17:01:12.564Z,6.90
2024-01-31T17:03:40.715Z,7.00
2024-01-31T17:06:08.122Z,7.00
2024-01-31T17:08:36.526Z,6.90
2024-01-31T17:11:04.093Z,6.90
2024-01-31T17:13:31.060Z,6.90
2024-01-31T17:15:59.335Z,6.90
2024-01-31T17:18:26.580Z,6.90
2024-01-31T17:20:53.868Z,6.90
2024-01-31T17:23:21.580Z,6.90
2024-01-31T17:25:48.614Z,6.80
2024-01-31T17:28:15.944Z,6.90
2024-01-31T17:30:43.226Z,6.90
2024-01-31T17:33:11.068Z,6.80
2024-01-31T17:35:38.916Z,6.70
2024-01-31T17:38:06.199Z,6.70
2024-01-31T17:40:33.510Z,6.80
2024-01-31T17:43:01.143Z,6.70
2024-01-31T17:45:29.925Z,6.70
2024-01-31T17:47:57.682Z,6.70
2024-01-31T17:50:25.753Z,6.60
2024-01-31T17:52:53.245Z,6.60
2024-01-31T17:55:21.100Z,6.60
2024-01-31T17:57:49.235Z,6.60
2024-01-31T18:00:20.028Z,6.50
2024-01-31T18:02:48.756Z,6.50
2024-01-31T18:05:15.923Z,6.40
2024-01-31T18:07:43.248Z,6.40
2024-01-31T18:10:10.557Z,6.30
2024-01-31T18:12:37.711Z,6.30
2024-01-31T18:15:11.916Z,6.40
2024-01-31T18:17:40.904Z,6.40
2024-01-31T18:20:08.322Z,6.40
2024-01-31T18:22:35.379Z,6.40
2024-01-31T18:25:02.421Z,6.40
2024-01-31T18:27:29.438Z,6.40
2024-01-31T18:29:56.562Z,6.30
2024-01-31T18:32:26.404Z,6.40
2024-01-31T18:34:53.775Z,6.30
2024-01-31T18:37:23.336Z,6.20
2024-01-31T18:39:51.001Z,6.20
2024-01-31T18:42:18.174Z,6.20
2024-01-31T18:44:45.355Z,6.10
2024-01-31T18:47:12.652Z,6.20
2024-01-31T18:49:39.911Z,6.10
2024-01-31T18:52:09.391Z,6.20
2024-01-31T18:54:38.651Z,6.20
2024-01-31T18:57:06.522Z,6.20
2024-01-31T18:59:33.662Z,6.20
2024-01-31T19:02:03.060Z,6.20
2024-01-31T19:04:32.848Z,6.20
2024-01-31T19:07:00.578Z,6.30
2024-01-31T19:09:29.127Z,6.20
2024-01-31T19:11:56.268Z,6.30
2024-01-31T19:14:23.424Z,6.30
2024-01-31T19:16:51.122Z,6.30
2024-01-31T19:19:18.433Z,6.10
2024-01-31T19:21:45.645Z,6.20
2024-01-31T19:24:12.677Z,6.20
2024-01-31T19:26:39.798Z,6.10
2024-01-31T19:29:07.209Z,6.20
2024-01-31T19:31:34.244Z,6.10
2024-01-31T19:34:01.500Z,6.10
2024-01-31T19:36:30.411Z,6.00
2024-01-31T19:38:58.141Z,5.90
2024-01-31T19:41:27.310Z,5.90
2024-01-31T19:43:54.813Z,5.90
2024-01-31T19:46:23.594Z,5.80
2024-01-31T19:48:50.784Z,5.90
2024-01-31T19:51:19.588Z,5.90
2024-01-31T19:53:53.580Z,5.80
2024-01-31T19:56:21.340Z,5.80
2024-01-31T19:58:48.717Z,5.80
2024-01-31T20:01:16.367Z,5.80
2024-01-31T20:03:44.007Z,5.80
2024-01-31T20:06:11.428Z,5.70
2024-01-31T20:08:38.759Z,5.80
2024-01-31T20:11:13.609Z,5.80
2024-01-31T20:13:40.860Z,5.80
2024-01-31T20:16:18.098Z,5.80
2024-01-31T20:18:50.964Z,5.90
2024-01-31T20:21:19.483Z,5.90
2024-01-31T20:23:49.454Z,6.00
2024-01-31T20:26:18.620Z,5.90
2024-01-31T20:28:45.716Z,5.90
2024-01-31T20:31:13.167Z,6.00
2024-01-31T20:33:40.302Z,5.90
2024-01-31T20:36:07.996Z,5.90
2024-01-31T20:38:35.080Z,5.80
2024-01-31T20:41:02.126Z,5.80
2024-01-31T20:43:29.028Z,5.80
2024-01-31T20:45:58.998Z,5.80
2024-01-31T20:48:33.426Z,5.80
2024-01-31T20:51:07.382Z,5.90
2024-01-31T20:53:34.571Z,5.90
2024-01-31T20:56:05.430Z,5.90
2024-01-31T20:58:32.815Z,5.80
2024-01-31T21:01:00.308Z,5.80
2024-01-31T21:03:27.327Z,5.80
2024-01-31T21:05:54.426Z,5.90
2024-01-31T21:08:21.508Z,5.90
2024-01-31T21:10:48.423Z,5.90
2024-01-31T21:13:17.567Z,5.90
2024-01-31T21:15:44.683Z,5.80
2024-01-31T21:18:12.203Z,5.90
2024-01-31T21:20:39.452Z,5.90
2024-01-31T21:23:06.557Z,5.90
2024-01-31T21:25:33.533Z,5.90
2024-01-31T21:28:03.298Z,5.90
2024-01-31T21:30:31.087Z,5.90
2024-01-31T21:32:58.160Z,5.80
2024-01-31T21:35:25.176Z,5.90
2024-01-31T21:37:52.622Z,5.90
2024-01-31T21:40:19.626Z,5.80
2024-01-31T21:42:47.086Z,5.80
2024-01-31T21:45:14.330Z,5.90
2024-01-31T21:47:41.514Z,5.70
2024-01-31T21:50:09.405Z,5.70
2024-01-31T21:52:36.447Z,5.80
2024-01-31T21:55:03.643Z,5.70
2024-01-31T21:57:30.614Z,5.60
2024-01-31T21:59:58.698Z,5.60
2024-01-31T22:02:26.404Z,5.60
2024-01-31T22:04:53.992Z,5.60
2024-01-31T22:07:22.095Z,5.60
2024-01-31T22:09:49.743Z,5.60
2024-01-31T22:12:16.821Z,5.50
2024-01-31T22:14:44.266Z,5.60
2024-01-31T22:17:11.640Z,5.60
2024-01-31T22:19:41.760Z,5.60
2024-01-31T22:22:09.241Z,5.70
2024-01-31T22:24:36.659Z,5.70
2024-01-31T22:27:04.070Z,5.70
2024-01-31T22:29:31.218Z,5.70
2024-01-31T22:32:05.167Z,5.60
2024-01-31T22:34:33.596Z,5.60
2024-01-31T22:37:04.418Z,5.60
2024-01-31T22:39:32.233Z,5.50
2024-01-31T22:41:59.425Z,5.50
2024-01-31T22:44:26.678Z,5.40
2024-01-31T22:46:53.663Z,5.50
2024-01-31T22:49:20.876Z,5.50
2024-01-31T22:51:49.085Z,5.50
2024-01-31T22:54:16.160Z,5.40
2024-01-31T22:56:43.280Z,5.50
2024-01-31T22:59:10.705Z,5.50
2024-01-31T23:01:37.824Z,5.40
2024-01-31T23:04:05.350Z,5.40
2024-01-31T23:06:32.905Z,5.40
2024-01-31T23:09:00.229Z,5.40
2024-01-31T23:11:27.537Z,5.40
2024-01-31T23:13:54.748Z,5.40
2024-01-31T23:16:21.783Z,5.40
2024-01-31T23:18:48.963Z,5.40
2024-01-31T23:21:16.661Z,5.30
2024-01-31T23:23:44.772Z,5.30
2024-01-31T23:26:17.264Z,5.30
2024-01-31T23:28:44.243Z,5.40
2024-01-31T23:31:11.809Z,5.40
2024-01-31T23:33:39.263Z,5.30
2024-01-31T23:36:06.976Z,5.20
2024-01-31T23:38:34.180Z,5.20
2024-01-31T23:41:01.615Z,5.20
2024-01-31T23:43:28.756Z,5.30
2024-01-31T23:45:55.654Z,5.20
2024-01-31T23:48:22.880Z,5.20
2024-01-31T23:50:50.088Z,5.20
2024-01-31T23:53:17.151Z,5.20
2024-01-31T23:55:44.304Z,5.20
2024-01-31T23:58:11.356Z,5.20
